createdAt,value
2019-02-28T00:02:10.228Z,60.12
2019-02-28T00:04:38.803Z,59.96
2019-02-28T00:07:07.390Z,59.69
2019-02-28T00:09:36.249Z,59.78
2019-02-28T00:12:13.189Z,59.47
2019-02-28T00:14:40.685Z,60.15
2019-02-28T00:17:09.888Z,60.15
2019-02-28T00:19:41.638Z,60.19
2019-02-28T00:22:14.664Z,60.08
2019-02-28T00:24:46.167Z,60.63
2019-02-28T00:27:14.748Z,60.63
2019-02-28T00:29:46.232Z,60.27
2019-02-28T00:32:14.814Z,60.73
2019-02-28T00:34:46.014Z,60.22
2019-02-28T00:37:14.602Z,60.17
2019-02-28T00:39:43.171Z,59.80
2019-02-28T00:42:11.756Z,60.50
2019-02-28T00:44:43.483Z,60.50
2019-02-28T00:47:16.404Z,60.64
2019-02-28T00:49:45.120Z,60.64
2019-02-28T00:52:17.330Z,61.42
2019-02-28T00:54:48.861Z,61.81
2019-02-28T00:57:17.447Z,60.35
2019-02-28T00:59:46.029Z,60.84
2019-02-28T01:02:18.489Z,60.17
2019-02-28T01:04:47.436Z,61.06
2019-02-28T01:07:19.083Z,60.38
2019-02-28T01:10:08.588Z,60.46
2019-02-28T01:12:53.345Z,60.46
2019-02-28T01:15:20.249Z,60.25
2019-02-28T01:17:52.357Z,60.92
2019-02-28T01:23:21.869Z,61.22
2019-02-28T01:25:53.565Z,61.22
2019-02-28T01:28:27.838Z,61.51
2019-02-28T01:30:59.446Z,61.51
2019-02-28T01:33:29.664Z,61.46
2019-02-28T01:35:58.204Z,62.11
2019-02-28T01:38:26.767Z,62.11
2019-02-28T01:40:58.250Z,62.19
2019-02-28T01:43:29.609Z,62.19
2019-02-28T01:46:01.160Z,62.05
2019-02-28T01:48:32.509Z,61.50
2019-02-28T01:51:04.052Z,61.58
2019-02-28T01:53:32.645Z,61.58
2019-02-28T01:56:04.107Z,61.13
2019-02-28T01:58:32.692Z,61.75
2019-02-28T02:01:04.011Z,60.70
2019-02-28T02:03:32.575Z,61.02
2019-02-28T02:06:01.109Z,60.73
2019-02-28T02:08:29.688Z,60.73
2019-02-28T02:11:01.433Z,60.43
2019-02-28T02:13:36.679Z,60.46
2019-02-28T02:16:06.584Z,60.46
2019-02-28T02:18:35.165Z,60.50
2019-02-28T02:21:03.726Z,59.59
2019-02-28T02:23:35.075Z,59.54
2019-02-28T02:26:03.634Z,60.47
2019-02-28T02:28:34.938Z,60.68
2019-02-28T02:31:03.566Z,61.06
2019-02-28T02:33:33.245Z,60.32
2019-02-28T02:36:04.660Z,59.85
2019-02-28T02:38:40.176Z,59.85
2019-02-28T02:41:04.894Z,59.72
2019-02-28T02:43:33.663Z,59.52
2019-02-28T02:46:05.235Z,59.17
2019-02-28T02:48:38.600Z,59.01
2019-02-28T02:51:10.999Z,59.53
2019-02-28T02:53:41.909Z,59.38
2019-02-28T02:56:10.470Z,59.38
2019-02-28T02:58:42.026Z,59.34
2019-02-28T03:01:13.342Z,59.34
2019-02-28T03:03:44.300Z,60.10
2019-02-28T03:06:14.885Z,59.67
2019-02-28T03:08:46.797Z,60.61
2019-02-28T03:11:15.714Z,60.95
2019-02-28T03:13:47.274Z,61.32
2019-02-28T03:16:15.836Z,61.12
2019-02-28T03:18:47.287Z,61.12
2019-02-28T03:21:18.623Z,61.42
2019-02-28T03:23:50.360Z,61.19
2019-02-28T03:26:21.834Z,61.19
2019-02-28T03:28:50.420Z,61.66
2019-02-28T03:31:19.005Z,61.66
2019-02-28T03:33:48.462Z,61.23
2019-02-28T03:36:17.051Z,61.86
2019-02-28T03:38:49.788Z,61.86
2019-02-28T03:41:18.645Z,61.67
2019-02-28T03:43:50.307Z,61.96
2019-02-28T03:46:21.593Z,61.94
2019-02-28T03:48:50.172Z,61.95
2019-02-28T03:51:21.668Z,61.95
2019-02-28T03:53:56.006Z,61.71
2019-02-28T03:56:26.523Z,62.57
2019-02-28T03:58:58.410Z,62.95
2019-02-28T04:01:29.968Z,62.95
2019-02-28T04:03:58.520Z,61.51
2019-02-28T04:06:30.304Z,61.87
2019-02-28T04:09:07.249Z,61.33
2019-02-28T04:11:32.255Z,61.33
2019-02-28T04:14:04.044Z,61.30
2019-02-28T04:16:35.364Z,61.08
2019-02-28T04:19:07.035Z,61.29
2019-02-28T04:21:38.843Z,61.60
2019-02-28T04:24:12.653Z,61.65
2019-02-28T04:26:37.733Z,61.78
2019-02-28T04:29:06.263Z,61.78
2019-02-28T04:31:37.518Z,62.91
2019-02-28T04:34:13.019Z,62.87
2019-02-28T04:36:37.097Z,62.87
2019-02-28T04:39:09.620Z,62.31
2019-02-28T04:47:30.570Z,62.40
2019-02-28T04:52:48.016Z,63.75
2019-02-28T04:57:51.572Z,65.07
2019-02-28T05:00:23.653Z,65.18
2019-02-28T05:02:54.881Z,65.18
2019-02-28T05:05:22.919Z,65.64
2019-02-28T05:07:54.414Z,67.07
2019-02-28T05:10:23.353Z,66.28
2019-02-28T05:12:51.933Z,66.28
2019-02-28T05:15:20.581Z,67.47
2019-02-28T05:17:53.141Z,66.69
2019-02-28T05:20:22.179Z,67.33
2019-02-28T05:22:53.543Z,67.33
2019-02-28T05:25:26.214Z,67.11
2019-02-28T05:27:57.558Z,67.47
2019-02-28T05:30:28.807Z,67.21
2019-02-28T05:33:00.228Z,67.36
2019-02-28T05:35:28.801Z,67.54
2019-02-28T05:38:00.065Z,67.85
2019-02-28T05:40:31.372Z,67.79
2019-02-28T05:43:02.937Z,67.72
2019-02-28T05:45:31.504Z,67.72
2019-02-28T05:48:03.879Z,67.43
2019-02-28T05:50:33.557Z,67.43
2019-02-28T05:53:06.283Z,68.35
2019-02-28T05:55:35.477Z,68.35
2019-02-28T05:58:07.010Z,68.60
2019-02-28T06:00:38.332Z,68.64
2019-02-28T06:03:09.138Z,68.64
2019-02-28T06:15:48.613Z,69.39
2019-02-28T06:23:23.523Z,69.55
2019-02-28T06:24:05.629Z,70.26
2019-02-28T06:26:42.635Z,70.26
2019-02-28T06:29:14.815Z,70.33
2019-02-28T06:31:45.475Z,69.73
2019-02-28T06:34:14.270Z,69.95
2019-02-28T06:36:43.053Z,69.95
2019-02-28T06:39:23.127Z,69.83
2019-02-28T06:41:51.778Z,70.09
2019-02-28T06:44:27.004Z,69.87
2019-02-28T06:46:56.202Z,70.09
2019-02-28T06:49:30.185Z,69.22
2019-02-28T06:52:10.217Z,69.58
2019-02-28T06:55:25.170Z,69.58
2019-02-28T07:03:53.544Z,70.32
2019-02-28T07:06:25.129Z,70.46
2019-02-28T07:08:53.918Z,70.95
2019-02-28T07:11:22.479Z,70.95
2019-02-28T07:13:51.053Z,70.86
2019-02-28T07:16:22.841Z,70.97
2019-02-28T07:18:54.106Z,71.08
2019-02-28T07:21:22.990Z,71.17
2019-02-28T07:23:54.292Z,71.09
2019-02-28T07:26:25.842Z,70.85
2019-02-28T07:28:57.370Z,70.89
2019-02-28T07:31:28.853Z,71.53
2019-02-28T07:33:57.433Z,71.53
2019-02-28T07:36:26.018Z,70.98
2019-02-28T07:38:57.910Z,71.34
2019-02-28T07:41:29.384Z,71.17
2019-02-28T07:44:03.256Z,71.26
2019-02-28T07:46:34.840Z,70.75
2019-02-28T07:52:13.885Z,70.46
2019-02-28T08:00:20.586Z,70.17
2019-02-28T08:02:58.488Z,70.50
2019-02-28T08:05:34.079Z,70.56
2019-02-28T08:08:04.182Z,70.22
2019-02-28T08:10:35.860Z,69.72
2019-02-28T08:13:04.423Z,69.80
2019-02-28T08:15:33.488Z,69.32
2019-02-28T08:18:05.856Z,69.71
2019-02-28T08:20:34.874Z,68.96
2019-02-28T08:23:06.225Z,69.13
2019-02-28T08:25:35.215Z,69.18
2019-02-28T08:28:04.178Z,68.93
2019-02-28T08:30:34.777Z,69.21
2019-02-28T08:33:16.495Z,68.76
2019-02-28T08:36:31.440Z,68.63
2019-02-28T08:39:18.078Z,68.70
2019-02-28T08:41:40.506Z,68.79
2019-02-28T08:44:58.162Z,68.35
2019-02-28T08:47:21.871Z,68.37
2019-02-28T08:49:50.664Z,68.42
2019-02-28T08:52:22.186Z,68.26
2019-02-28T08:54:50.759Z,68.02
2019-02-28T08:57:22.026Z,67.74
2019-02-28T08:59:52.522Z,67.53
2019-02-28T09:02:23.419Z,67.27
2019-02-28T09:04:54.908Z,66.73
2019-02-28T09:07:26.579Z,66.41
2019-02-28T09:09:57.848Z,66.18
2019-02-28T09:12:29.887Z,65.83
2019-02-28T09:15:03.976Z,65.90
2019-02-28T09:17:35.645Z,65.99
2019-02-28T09:20:07.445Z,65.98
2019-02-28T09:22:36.973Z,66.18
2019-02-28T09:25:08.543Z,65.79
2019-02-28T09:27:40.057Z,65.72
2019-02-28T09:30:15.027Z,66.18
2019-02-28T09:32:48.158Z,66.44
2019-02-28T09:35:16.970Z,66.86
2019-02-28T09:37:48.250Z,65.97
2019-02-28T09:40:19.996Z,65.56
2019-02-28T09:42:51.164Z,65.31
2019-02-28T09:45:24.365Z,65.59
2019-02-28T09:48:00.791Z,65.16
2019-02-28T09:50:26.695Z,64.80
2019-02-28T09:52:58.043Z,64.03
2019-02-28T09:55:26.799Z,63.54
2019-02-28T09:57:58.171Z,63.16
2019-02-28T10:00:32.312Z,62.73
2019-02-28T10:03:10.142Z,63.05
2019-02-28T10:05:42.355Z,62.41
2019-02-28T10:08:09.420Z,62.61
2019-02-28T10:10:40.796Z,61.89
2019-02-28T10:13:14.541Z,62.22
2019-02-28T10:15:42.475Z,61.24
2019-02-28T10:18:14.248Z,61.02
2019-02-28T10:20:43.328Z,62.72
2019-02-28T10:23:11.874Z,59.84
2019-02-28T10:25:43.719Z,60.93
2019-02-28T10:28:15.371Z,60.97
2019-02-28T10:30:47.254Z,60.68
2019-02-28T10:33:20.293Z,60.16
2019-02-28T10:35:48.861Z,58.90
2019-02-28T10:38:17.503Z,59.18
2019-02-28T10:40:49.323Z,58.73
2019-02-28T10:43:19.077Z,59.39
2019-02-28T10:45:47.658Z,59.24
2019-02-28T10:48:19.211Z,59.31
2019-02-28T10:50:51.394Z,59.47
2019-02-28T10:53:23.013Z,59.06
2019-02-28T10:55:58.027Z,59.21
2019-02-28T10:58:25.793Z,58.97
2019-02-28T11:00:57.569Z,58.60
2019-02-28T11:03:31.757Z,58.89
2019-02-28T11:06:02.361Z,59.00
2019-02-28T11:08:36.873Z,59.63
2019-02-28T11:11:07.349Z,59.75
2019-02-28T11:13:38.789Z,58.38
2019-02-28T11:16:10.209Z,58.32
2019-02-28T11:18:42.753Z,57.61
2019-02-28T11:21:15.208Z,57.29
2019-02-28T11:23:50.086Z,57.39
2019-02-28T11:26:20.135Z,56.60
2019-02-28T11:28:51.693Z,56.13
2019-02-28T11:31:23.170Z,56.31
2019-02-28T11:33:54.543Z,57.03
2019-02-28T11:36:23.357Z,56.88
2019-02-28T11:38:55.440Z,56.92
2019-02-28T11:41:27.593Z,56.86
2019-02-28T11:43:56.512Z,57.09
2019-02-28T11:46:28.164Z,56.50
2019-02-28T11:48:59.447Z,56.17
2019-02-28T11:51:28.065Z,56.05
2019-02-28T11:54:03.565Z,55.97
2019-02-28T11:56:35.054Z,55.92
2019-02-28T11:59:09.507Z,55.87
2019-02-28T12:01:42.431Z,55.57
2019-02-28T12:04:14.444Z,55.04
2019-02-28T12:06:46.083Z,55.13
2019-02-28T12:09:16.263Z,55.12
2019-02-28T12:12:04.077Z,54.50
2019-02-28T12:20:40.862Z,56.00
2019-02-28T12:23:12.438Z,55.63
2019-02-28T12:25:43.727Z,55.57
2019-02-28T12:28:18.169Z,55.18
2019-02-28T12:30:46.780Z,55.61
2019-02-28T12:33:19.597Z,55.00
2019-02-28T12:35:48.706Z,56.19
2019-02-28T12:38:20.242Z,55.76
2019-02-28T12:40:52.177Z,55.85
2019-02-28T12:43:20.764Z,55.47
2019-02-28T12:45:49.593Z,56.08
2019-02-28T12:48:21.185Z,55.54
2019-02-28T13:06:59.529Z,54.84
2019-02-28T13:09:30.138Z,54.88
2019-02-28T13:12:01.293Z,54.97
2019-02-28T13:14:29.917Z,54.96
2019-02-28T13:17:00.787Z,55.60
2019-02-28T13:19:32.520Z,55.33
2019-02-28T13:22:07.064Z,55.71
2019-02-28T13:24:38.510Z,55.40
2019-02-28T13:27:10.868Z,55.40
2019-02-28T13:29:42.127Z,55.71
2019-02-28T13:32:13.468Z,56.06
2019-02-28T13:34:42.017Z,55.89
2019-02-28T13:37:11.563Z,55.79
2019-02-28T13:39:44.719Z,55.87
2019-02-28T13:42:15.807Z,56.91
2019-02-28T13:44:44.376Z,57.05
2019-02-28T13:47:15.608Z,57.18
2019-02-28T13:49:49.847Z,57.27
2019-02-28T13:52:20.522Z,57.08
2019-02-28T13:54:50.579Z,57.32
2019-02-28T13:57:23.678Z,57.79
2019-02-28T13:59:54.965Z,58.25
2019-02-28T14:02:29.855Z,57.88
2019-02-28T14:05:04.232Z,58.56
2019-02-28T14:07:35.590Z,58.31
2019-02-28T14:10:11.405Z,59.11
2019-02-28T14:12:40.359Z,58.71
2019-02-28T14:15:48.051Z,58.47
2019-02-28T14:18:18.249Z,58.37
2019-02-28T14:20:49.826Z,58.35
2019-02-28T14:23:21.658Z,58.93
2019-02-28T14:25:53.598Z,59.12
2019-02-28T14:28:25.383Z,59.24
2019-02-28T14:30:54.376Z,59.52
2019-02-28T14:33:24.487Z,59.61
2019-02-28T14:35:53.952Z,60.39
2019-02-28T14:38:26.147Z,60.12
2019-02-28T14:40:59.351Z,60.40
2019-02-28T14:43:33.161Z,60.54
2019-02-28T14:46:01.709Z,60.64
2019-02-28T14:48:36.622Z,60.31
2019-02-28T14:51:06.741Z,60.60
2019-02-28T14:53:35.317Z,60.87
2019-02-28T14:56:08.223Z,60.68
2019-02-28T14:58:39.849Z,60.68
2019-02-28T15:01:16.818Z,60.77
2019-02-28T15:03:45.183Z,61.01
2019-02-28T15:06:13.770Z,61.05
2019-02-28T15:08:47.429Z,61.14
2019-02-28T15:11:18.582Z,60.62
2019-02-28T15:13:50.365Z,60.33
2019-02-28T15:16:21.739Z,60.76
2019-02-28T15:18:51.228Z,60.81
2019-02-28T15:21:19.937Z,60.76
2019-02-28T15:23:51.541Z,61.22
2019-02-28T15:26:23.419Z,61.19
2019-02-28T15:28:55.020Z,61.52
2019-02-28T15:31:26.607Z,61.54
2019-02-28T15:33:58.591Z,61.68
2019-02-28T15:36:27.511Z,62.03
2019-02-28T15:38:58.805Z,62.79
2019-02-28T15:41:30.737Z,62.65
2019-02-28T15:44:03.682Z,63.28
2019-02-28T15:46:36.008Z,63.48
2019-02-28T15:49:10.178Z,63.67
2019-02-28T15:51:40.821Z,63.92
2019-02-28T15:54:12.300Z,64.35
2019-02-28T15:56:43.679Z,65.03
2019-02-28T15:59:15.652Z,65.00
2019-02-28T16:01:46.928Z,65.94
2019-02-28T16:04:18.425Z,65.75
2019-02-28T16:06:56.362Z,66.14
2019-02-28T16:09:21.449Z,65.93
2019-02-28T16:11:50.414Z,66.26
2019-02-28T16:14:21.891Z,66.69
2019-02-28T16:16:50.506Z,66.67
2019-02-28T16:19:22.728Z,66.92
2019-02-28T16:21:51.357Z,67.13
2019-02-28T16:24:20.153Z,67.33
2019-02-28T16:26:53.475Z,67.33
2019-02-28T16:29:22.099Z,68.00
2019-02-28T16:31:51.203Z,68.04
2019-02-28T16:34:22.791Z,68.26
2019-02-28T16:36:51.375Z,68.49
2019-02-28T16:39:19.999Z,68.60
2019-02-28T16:41:51.584Z,68.68
2019-02-28T16:44:22.827Z,69.03
2019-02-28T16:46:54.425Z,69.62
2019-02-28T16:49:23.396Z,70.09
2019-02-28T16:51:54.683Z,69.96
2019-02-28T16:54:27.841Z,70.15
2019-02-28T16:56:59.235Z,70.58
2019-02-28T16:59:31.740Z,70.79
2019-02-28T17:02:01.109Z,71.39
2019-02-28T17:04:29.717Z,71.31
2019-02-28T17:07:02.708Z,71.57
2019-02-28T17:09:37.333Z,71.72
2019-02-28T17:12:07.490Z,72.15
2019-02-28T17:14:39.358Z,72.33
2019-02-28T17:17:11.829Z,72.65
2019-02-28T17:19:42.935Z,72.73
2019-02-28T17:22:14.615Z,72.94
2019-02-28T17:24:46.954Z,73.01
2019-02-28T17:27:25.858Z,73.25
2019-02-28T17:30:00.460Z,73.78
2019-02-28T17:32:32.317Z,73.75
2019-02-28T17:35:04.285Z,74.15
2019-02-28T17:37:33.817Z,74.26
2019-02-28T17:40:08.751Z,74.75
2019-02-28T17:42:40.166Z,74.58
2019-02-28T17:45:16.261Z,75.17
2019-02-28T17:48:12.694Z,75.19
2019-02-28T17:50:51.012Z,75.40
2019-02-28T17:53:52.658Z,75.66
2019-02-28T17:56:40.844Z,76.04
2019-02-28T17:59:19.395Z,76.12
2019-02-28T18:01:56.982Z,76.33
2019-02-28T18:04:56.106Z,76.86
2019-02-28T18:07:33.037Z,77.13
2019-02-28T18:10:16.063Z,77.12
2019-02-28T18:13:02.646Z,78.12
2019-02-28T18:15:34.334Z,78.36
2019-02-28T18:18:41.552Z,78.88
2019-02-28T18:21:29.840Z,79.02
2019-02-28T18:24:18.169Z,79.67
2019-02-28T18:27:08.428Z,80.21
2019-02-28T18:30:00.651Z,80.04
2019-02-28T18:32:29.716Z,80.08
2019-02-28T18:35:02.286Z,80.46
2019-02-28T18:37:30.895Z,81.36
2019-02-28T18:40:02.384Z,81.63
2019-02-28T18:42:33.650Z,81.89
2019-02-28T18:45:10.285Z,82.14
2019-02-28T18:47:39.746Z,82.66
2019-02-28T18:50:12.546Z,82.68
2019-02-28T18:52:43.825Z,82.61
2019-02-28T18:55:15.503Z,83.24
2019-02-28T18:57:47.192Z,83.72
2019-02-28T19:00:20.210Z,83.60
2019-02-28T19:02:48.821Z,84.44
2019-02-28T19:05:17.546Z,83.98
2019-02-28T19:07:46.963Z,83.98
2019-02-28T19:10:18.840Z,84.27
2019-02-28T19:12:50.385Z,84.31
2019-02-28T19:15:21.918Z,84.62
2019-02-28T19:17:53.495Z,84.66
2019-02-28T19:20:25.483Z,85.05
2019-02-28T19:22:54.093Z,85.34
2019-02-28T19:25:25.687Z,85.63
2019-02-28T19:27:57.048Z,86.17
2019-02-28T19:30:28.934Z,86.17
2019-02-28T19:33:00.618Z,86.36
2019-02-28T19:35:32.236Z,86.43
2019-02-28T19:38:01.191Z,86.96
2019-02-28T19:40:29.856Z,86.96
2019-02-28T19:42:58.787Z,86.76
2019-02-28T19:45:33.956Z,86.92
2019-02-28T19:48:05.330Z,86.92
2019-02-28T19:50:34.457Z,87.47
2019-02-28T19:53:07.982Z,87.43
2019-02-28T19:55:38.870Z,87.43
2019-02-28T19:58:08.003Z,87.45
2019-02-28T20:00:37.302Z,87.45
2019-02-28T20:03:08.733Z,87.95
2019-02-28T20:05:40.223Z,87.67
2019-02-28T20:08:08.848Z,88.04
2019-02-28T20:10:40.738Z,88.04
2019-02-28T20:13:09.555Z,88.01
2019-02-28T20:15:41.562Z,88.53
2019-02-28T20:18:10.494Z,88.45
2019-02-28T20:20:45.410Z,88.65
2019-02-28T20:23:14.182Z,88.41
2019-02-28T20:25:45.957Z,88.42
2019-02-28T20:28:17.352Z,88.70
2019-02-28T20:30:47.570Z,88.70
2019-02-28T20:33:16.232Z,88.39
2019-02-28T20:35:45.161Z,88.25
2019-02-28T20:38:14.193Z,88.15
2019-02-28T20:40:46.282Z,88.15
2019-02-28T20:43:14.893Z,86.88
2019-02-28T20:45:43.998Z,86.88
2019-02-28T20:48:12.753Z,86.84
2019-02-28T20:50:47.504Z,86.77
2019-02-28T20:53:18.883Z,86.52
2019-02-28T20:55:50.562Z,86.44
2019-02-28T20:58:22.146Z,86.16
2019-02-28T21:00:53.823Z,86.16
2019-02-28T21:03:22.442Z,85.66
2019-02-28T21:05:51.280Z,85.20
2019-02-28T21:08:22.638Z,85.20
2019-02-28T21:10:51.454Z,85.21
2019-02-28T21:13:22.723Z,85.56
2019-02-28T21:15:54.097Z,85.10
2019-02-28T21:18:25.480Z,84.96
2019-02-28T21:20:54.103Z,85.35
2019-02-28T21:23:23.143Z,85.95
2019-02-28T21:25:52.189Z,86.40
2019-02-28T21:28:20.912Z,86.03
2019-02-28T21:30:49.489Z,86.05
2019-02-28T21:33:18.104Z,86.06
2019-02-28T21:35:50.001Z,86.26
2019-02-28T21:38:18.706Z,86.39
2019-02-28T21:40:47.421Z,86.62
2019-02-28T21:43:18.689Z,85.82
2019-02-28T21:45:47.297Z,85.82
2019-02-28T21:48:15.924Z,86.26
2019-02-28T21:50:47.401Z,86.19
2019-02-28T21:53:18.989Z,86.56
2019-02-28T21:55:50.661Z,86.56
2019-02-28T21:58:21.949Z,86.04
2019-02-28T22:00:53.221Z,86.24
2019-02-28T22:03:24.692Z,86.24
2019-02-28T22:05:56.068Z,86.25
2019-02-28T22:08:27.726Z,86.14
2019-02-28T22:10:59.227Z,85.81
2019-02-28T22:13:30.807Z,85.91
2019-02-28T22:15:59.414Z,85.91
2019-02-28T22:18:30.897Z,85.77
2019-02-28T22:21:02.476Z,85.77
2019-02-28T22:23:34.264Z,85.66
2019-02-28T22:26:05.644Z,85.83
2019-02-28T22:28:38.998Z,85.78
2019-02-28T22:31:12.215Z,85.54
2019-02-28T22:33:45.431Z,85.62
2019-02-28T22:36:27.453Z,85.96
2019-02-28T22:38:56.471Z,86.10
2019-02-28T22:41:28.256Z,86.23
2019-02-28T22:43:56.869Z,85.92
2019-02-28T22:46:25.681Z,85.92
2019-02-28T22:48:54.292Z,86.16
2019-02-28T22:51:25.871Z,86.71
2019-02-28T22:53:54.483Z,86.27
2019-02-28T22:56:26.078Z,86.52
2019-02-28T22:58:57.764Z,86.09
2019-02-28T23:01:29.629Z,86.59
2019-02-28T23:03:58.263Z,86.41
2019-02-28T23:06:26.829Z,86.41
2019-02-28T23:08:58.454Z,86.56
2019-02-28T23:11:29.935Z,86.70
2019-02-28T23:14:01.494Z,88.06
2019-02-28T23:16:30.119Z,87.98
2019-02-28T23:19:01.492Z,87.98
2019-02-28T23:21:30.053Z,88.04
2019-02-28T23:24:01.481Z,89.13
2019-02-28T23:26:30.091Z,90.08
2019-02-28T23:29:01.721Z,90.37
2019-02-28T23:31:42.499Z,89.84
2019-02-28T23:34:17.513Z,89.42
2019-02-28T23:36:46.095Z,89.88
2019-02-28T23:39:14.719Z,90.36
2019-02-28T23:41:43.666Z,91.09
2019-02-28T23:44:12.632Z,91.09
2019-02-28T23:46:41.915Z,89.96
2019-02-28T23:49:10.501Z,90.06
2019-02-28T23:51:42.025Z,90.24
2019-02-28T23:54:10.604Z,91.14
2019-02-28T23:56:42.121Z,91.49
2019-02-28T23:59:10.701Z,91.49
